Time;durP1;ratioP1;P1;durP2;ratioP2;P2;SDS_P1;SDS_P2;PMS_P1;PMS_P2;Temp;Humidity;BMP_temperature;BMP_pressure;BME280_temperature;BME280_humidity;BME280_pressure;Samples;Min_cycle;Max_cycle;Signal;HPM_P1;HPM_P2
2022/07/02 00:01:18;;;;;;;8.55;4.07;;;14.50;99.90;;;;;;5013176;28;20526;-89
2022/07/02 00:03:51;;;;;;;9.30;4.55;;;14.40;99.90;;;;;;5007667;28;20153;-89
2022/07/02 00:06:20;;;;;;;8.20;4.20;;;14.40;99.90;;;;;;5016439;28;20432;-89
2022/07/02 00:08:46;;;;;;;7.40;4.10;;;14.30;99.90;;;;;;5007723;28;20099;-88
2022/07/02 00:11:14;;;;;;;8.32;4.30;;;14.30;99.90;;;;;;5010594;28;20434;-89
2022/07/02 00:13:40;;;;;;;7.63;4.28;;;14.20;99.90;;;;;;5026567;28;20547;-88
2022/07/02 00:16:10;;;;;;;8.68;4.25;;;14.20;99.90;;;;;;5011139;28;20178;-89
2022/07/02 00:18:36;;;;;;;8.68;4.65;;;14.10;99.90;;;;;;5009395;28;20049;-88
2022/07/02 00:21:03;;;;;;;8.82;4.45;;;14.10;99.90;;;;;;5007720;28;20041;-88
2022/07/02 00:23:28;;;;;;;8.65;4.80;;;14.10;99.90;;;;;;4990582;28;20465;-89
2022/07/02 00:25:58;;;;;;;8.23;5.00;;;14.10;99.90;;;;;;5014342;28;20092;-89
2022/07/02 00:28:26;;;;;;;9.55;5.00;;;14.10;99.90;;;;;;5009702;28;20049;-88
2022/07/02 00:30:52;;;;;;;7.57;4.68;;;14.10;99.90;;;;;;5028062;28;20045;-89
2022/07/02 00:33:18;;;;;;;7.03;4.72;;;14.10;99.90;;;;;;5017117;28;20092;-89
2022/07/02 00:35:45;;;;;;;8.07;5.00;;;14.10;99.90;;;;;;5009830;28;20056;-89
2022/07/02 00:38:11;;;;;;;8.82;4.57;;;14.10;99.90;;;;;;5009823;28;20060;-89
2022/07/02 00:40:38;;;;;;;9.45;4.43;;;14.10;99.90;;;;;;5018294;28;20070;-89
2022/07/02 00:43:04;;;;;;;8.57;4.70;;;14.00;99.90;;;;;;5013129;28;20104;-89
2022/07/02 00:45:32;;;;;;;10.30;5.10;;;14.00;99.90;;;;;;5006057;28;20268;-89
2022/07/02 00:48:00;;;;;;;8.27;5.00;;;14.00;99.90;;;;;;5009142;28;20045;-89
2022/07/02 00:50:26;;;;;;;8.35;4.80;;;14.00;99.90;;;;;;5006330;28;20048;-89
2022/07/02 00:52:51;;;;;;;9.65;5.50;;;14.00;99.90;;;;;;5007360;28;20073;-89
2022/07/02 00:55:17;;;;;;;9.02;5.07;;;14.00;99.90;;;;;;4994142;28;20080;-89
2022/07/02 00:57:45;;;;;;;9.75;4.95;;;14.00;99.90;;;;;;5009485;28;20081;-89
2022/07/02 01:00:16;;;;;;;9.55;5.22;;;14.00;99.90;;;;;;5007158;28;20140;-89
2022/07/02 01:02:46;;;;;;;10.23;5.03;;;13.90;99.90;;;;;;4987201;28;20056;-90
2022/07/02 01:05:17;;;;;;;7.97;4.90;;;13.90;99.90;;;;;;4992387;28;20041;-90
2022/07/02 01:07:46;;;;;;;9.88;5.53;;;13.90;99.90;;;;;;4993787;28;20046;-89
2022/07/02 01:10:17;;;;;;;9.00;5.32;;;13.90;99.90;;;;;;5012779;28;20726;-89
2022/07/02 01:12:47;;;;;;;;;;;13.90;99.90;;;;;;5010541;28;20384;-88
2022/07/02 01:15:13;;;;;;;8.35;5.10;;;13.80;99.90;;;;;;5016901;28;19925;-89
2022/07/02 01:17:39;;;;;;;7.78;5.30;;;13.80;99.90;;;;;;4997961;28;20049;-89
2022/07/02 01:20:05;;;;;;;8.25;5.10;;;13.80;99.90;;;;;;5007838;28;20049;-89
2022/07/02 01:22:36;;;;;;;10.43;5.22;;;13.80;99.90;;;;;;5006688;28;20506;-89
2022/07/02 01:25:03;;;;;;;9.57;5.47;;;13.70;99.90;;;;;;5007885;28;20120;-88
2022/07/02 01:27:29;;;;;;;8.55;5.63;;;13.70;99.90;;;;;;5016478;28;20046;-88
2022/07/02 01:29:55;;;;;;;9.88;5.45;;;13.60;99.90;;;;;;4994588;28;20033;-89
2022/07/02 01:32:21;;;;;;;8.70;5.30;;;13.60;99.90;;;;;;5012992;28;20914;-88
2022/07/02 01:35:02;;;;;;;9.43;5.32;;;13.50;99.90;;;;;;5011710;28;20042;-89
2022/07/02 01:37:27;;;;;;;9.48;6.07;;;13.50;99.90;;;;;;5015112;28;20049;-89
2022/07/02 01:39:53;;;;;;;8.77;5.55;;;13.40;99.90;;;;;;5015422;28;20041;-89
2022/07/02 01:42:19;;;;;;;8.23;5.10;;;13.40;99.90;;;;;;4997725;28;20033;-88
2022/07/02 01:44:45;;;;;;;9.43;6.13;;;13.30;99.90;;;;;;5016077;28;20053;-89
2022/07/02 01:47:12;;;;;;;9.35;5.20;;;13.30;99.90;;;;;;4998316;28;20048;-89
2022/07/02 01:49:39;;;;;;;8.43;4.95;;;13.30;99.90;;;;;;5017553;28;20406;-88
2022/07/02 01:52:06;;;;;;;8.25;5.55;;;13.30;99.90;;;;;;5010912;28;20132;-89
2022/07/02 01:54:33;;;;;;;9.65;5.60;;;13.30;99.90;;;;;;4999416;28;20136;-88
2022/07/02 01:57:00;;;;;;;9.10;5.32;;;13.30;99.90;;;;;;5011435;28;20042;-89
2022/07/02 01:59:26;;;;;;;9.82;5.45;;;13.30;99.90;;;;;;5012358;28;20050;-89
2022/07/02 02:01:52;;;;;;;10.23;5.20;;;13.30;99.90;;;;;;4998871;28;20054;-89
2022/07/02 02:04:17;;;;;;;8.35;5.10;;;13.20;99.90;;;;;;5014311;28;20041;-89
2022/07/02 02:06:43;;;;;;;9.50;5.35;;;13.20;99.90;;;;;;5009209;28;20053;-89
2022/07/02 02:09:09;;;;;;;8.27;5.20;;;13.20;99.90;;;;;;4995336;28;20687;-89
2022/07/02 02:11:34;;;;;;;8.63;5.25;;;13.20;99.90;;;;;;5017131;28;20087;-88
2022/07/02 02:14:00;;;;;;;9.00;5.03;;;13.20;99.90;;;;;;5011419;28;20101;-89
2022/07/02 02:16:27;;;;;;;9.05;5.18;;;13.20;99.90;;;;;;5012994;28;20044;-89
2022/07/02 02:18:54;;;;;;;8.25;5.00;;;13.10;99.90;;;;;;5018145;28;20131;-89
2022/07/02 02:21:21;;;;;;;8.80;5.53;;;13.10;99.90;;;;;;5030615;28;20054;-89
2022/07/02 02:23:47;;;;;;;10.13;5.63;;;13.10;99.90;;;;;;4989870;28;20038;-88
2022/07/02 02:26:12;;;;;;;9.82;5.38;;;13.10;99.90;;;;;;4995010;28;20452;-90
2022/07/02 02:28:38;;;;;;;8.82;5.80;;;13.10;99.90;;;;;;5014674;28;20509;-89
2022/07/02 02:31:04;;;;;;;9.73;5.45;;;13.10;99.90;;;;;;5000332;28;20041;-89
2022/07/02 02:33:29;;;;;;;9.65;5.32;;;13.10;99.90;;;;;;5011745;28;20491;-89
2022/07/02 02:35:55;;;;;;;9.60;5.50;;;13.10;99.90;;;;;;5013492;28;20056;-89
2022/07/02 02:38:21;;;;;;;8.35;5.00;;;13.00;99.90;;;;;;5010713;28;20072;-89
2022/07/02 02:40:46;;;;;;;9.57;5.20;;;13.00;99.90;;;;;;5014636;28;20089;-89
2022/07/02 02:43:12;;;;;;;9.50;5.65;;;13.00;99.90;;;;;;5010606;28;20158;-89
2022/07/02 02:45:37;;;;;;;9.82;6.35;;;13.00;99.90;;;;;;5014647;28;20041;-90
2022/07/02 02:48:03;;;;;;;10.07;6.05;;;13.00;99.90;;;;;;5017650;28;20048;-90
2022/07/02 02:50:29;;;;;;;10.63;5.75;;;13.00;99.90;;;;;;5014966;28;20049;-89
2022/07/02 02:52:54;;;;;;;9.27;5.68;;;13.00;99.90;;;;;;5009069;28;20044;-90
2022/07/02 02:55:20;;;;;;;10.63;5.88;;;13.00;99.90;;;;;;5016958;28;20038;-88
2022/07/02 02:57:45;;;;;;;8.90;6.47;;;13.00;99.90;;;;;;5008644;28;20041;-89
2022/07/02 03:00:12;;;;;;;8.38;5.93;;;12.90;99.90;;;;;;5009333;28;20053;-89
2022/07/02 03:02:37;;;;;;;8.32;6.13;;;12.90;99.90;;;;;;5010203;28;20065;-89
2022/07/02 03:05:03;;;;;;;9.23;6.32;;;12.90;99.90;;;;;;5008928;28;20045;-89
2022/07/02 03:07:29;;;;;;;9.85;6.38;;;12.90;99.90;;;;;;4990829;28;20585;-89
2022/07/02 03:09:54;;;;;;;9.88;6.43;;;12.90;99.90;;;;;;5003922;28;20114;-89
2022/07/02 03:12:20;;;;;;;8.85;7.07;;;12.90;99.90;;;;;;4993901;28;20048;-89
2022/07/02 03:14:45;;;;;;;9.55;5.95;;;12.80;99.90;;;;;;5012068;28;20037;-89
2022/07/02 03:17:11;;;;;;;10.88;6.88;;;12.80;99.90;;;;;;4996118;28;20037;-89
2022/07/02 03:19:36;;;;;;;10.20;6.97;;;12.70;99.90;;;;;;5014544;28;20053;-89
2022/07/02 03:22:02;;;;;;;10.30;6.80;;;12.70;99.90;;;;;;5014327;28;20041;-89
2022/07/02 03:24:28;;;;;;;8.48;6.22;;;12.70;99.90;;;;;;5011567;28;20073;-89
2022/07/02 03:26:53;;;;;;;9.35;6.80;;;12.60;99.90;;;;;;4989626;28;20372;-89
2022/07/02 03:29:19;;;;;;;10.02;6.63;;;12.60;99.90;;;;;;4996834;28;20087;-89
2022/07/02 03:31:44;;;;;;;11.80;7.45;;;12.60;99.90;;;;;;5017996;28;20506;-89
2022/07/02 03:34:10;;;;;;;9.65;7.10;;;12.60;99.90;;;;;;5015506;28;20053;-89
2022/07/02 03:36:36;;;;;;;9.77;7.18;;;12.60;99.90;;;;;;4991868;28;20072;-89
2022/07/02 03:39:01;;;;;;;10.32;8.30;;;12.50;99.90;;;;;;5018170;28;20049;-89
2022/07/02 03:41:27;;;;;;;10.43;7.95;;;12.60;99.90;;;;;;5008537;28;20139;-89
2022/07/02 03:43:52;;;;;;;10.93;8.07;;;12.60;99.90;;;;;;5010304;28;20076;-89
2022/07/02 03:46:18;;;;;;;11.50;8.57;;;12.60;99.90;;;;;;5011974;28;20034;-89
2022/07/02 03:48:44;;;;;;;11.93;9.00;;;12.70;99.90;;;;;;5011227;28;20946;-89
2022/07/02 03:51:10;;;;;;;11.20;8.55;;;12.80;99.90;;;;;;5022417;28;20068;-89
2022/07/02 03:53:35;;;;;;;11.82;9.07;;;12.80;99.90;;;;;;5010987;28;20073;-89
2022/07/02 03:56:02;;;;;;;11.82;9.05;;;12.80;99.90;;;;;;5012845;28;20398;-89
2022/07/02 03:58:28;;;;;;;11.80;8.88;;;12.90;99.90;;;;;;5007197;28;20699;-89
2022/07/02 04:00:53;;;;;;;11.77;9.05;;;12.90;99.90;;;;;;5005856;28;20100;-89
2022/07/02 04:03:19;;;;;;;11.93;8.75;;;13.00;99.90;;;;;;5013019;28;20041;-89
2022/07/02 04:05:44;;;;;;;10.32;8.77;;;13.00;99.90;;;;;;4993271;28;20434;-90
2022/07/02 04:08:10;;;;;;;11.02;9.25;;;13.10;99.90;;;;;;5013472;28;20034;-89
2022/07/02 04:10:35;;;;;;;10.98;8.85;;;13.20;99.90;;;;;;5012043;28;20799;-89
2022/07/02 04:13:01;;;;;;;11.52;9.20;;;13.20;99.90;;;;;;4992251;28;20038;-88
2022/07/02 04:15:27;;;;;;;11.07;9.18;;;13.20;99.90;;;;;;4994371;28;20129;-90
2022/07/02 04:17:53;;;;;;;13.45;9.73;;;13.30;99.90;;;;;;5007641;28;20125;-90
2022/07/02 04:20:18;;;;;;;10.63;9.35;;;13.30;99.90;;;;;;5017706;28;20053;-90
2022/07/02 04:22:44;;;;;;;11.88;9.55;;;13.40;99.90;;;;;;4994174;28;20426;-91
2022/07/02 04:25:10;;;;;;;11.75;9.57;;;13.50;99.90;;;;;;4994749;28;20045;-89
2022/07/02 04:27:35;;;;;;;11.15;9.77;;;13.50;99.90;;;;;;5013091;28;20041;-90
2022/07/02 04:30:01;;;;;;;11.55;10.13;;;13.60;99.90;;;;;;5012896;28;20118;-90
2022/07/02 04:32:27;;;;;;;11.93;9.75;;;13.60;99.90;;;;;;5001006;28;20095;-90
2022/07/02 04:34:53;;;;;;;12.52;10.05;;;13.60;99.90;;;;;;4998911;28;20033;-90
2022/07/02 04:37:18;;;;;;;11.40;9.60;;;13.70;99.90;;;;;;5007039;28;20379;-91
2022/07/02 04:39:44;;;;;;;12.57;9.60;;;13.70;99.90;;;;;;5010501;28;20041;-89
2022/07/02 04:42:09;;;;;;;12.45;9.70;;;13.70;99.90;;;;;;5006220;28;20041;-89
2022/07/02 04:44:35;;;;;;;12.32;9.63;;;13.80;99.90;;;;;;5011155;28;20778;-90
2022/07/02 04:47:01;;;;;;;12.75;10.27;;;13.90;99.90;;;;;;5011701;28;20034;-89
2022/07/02 04:49:26;;;;;;;12.57;9.63;;;13.90;99.90;;;;;;5013897;28;20207;-89
2022/07/02 04:51:52;;;;;;;11.80;9.43;;;14.00;99.90;;;;;;4997146;28;20034;-94
2022/07/02 04:54:18;;;;;;;11.43;9.35;;;14.00;99.90;;;;;;5013426;28;20099;-95
2022/07/02 04:56:43;;;;;;;11.60;9.52;;;14.10;99.90;;;;;;5011280;28;20722;-94
2022/07/02 04:59:09;;;;;;;11.43;9.23;;;14.20;99.90;;;;;;4992404;28;20058;-91
2022/07/02 05:01:35;;;;;;;12.85;9.38;;;14.20;99.90;;;;;;5011507;28;20037;-92
2022/07/02 05:04:00;;;;;;;11.98;9.43;;;14.20;99.90;;;;;;5015115;28;20046;-92
2022/07/02 05:06:26;;;;;;;12.73;9.07;;;14.40;99.90;;;;;;5011191;28;20045;-93
2022/07/02 05:08:52;;;;;;;11.90;9.85;;;14.40;99.90;;;;;;4999720;28;20414;-94
2022/07/02 05:11:19;;;;;;;11.80;8.75;;;14.40;99.90;;;;;;4990348;28;20131;-94
2022/07/02 05:13:48;;;;;;;11.13;8.80;;;14.50;99.90;;;;;;5008354;28;20129;-93
2022/07/02 05:16:15;;;;;;;10.48;8.85;;;14.60;99.90;;;;;;4989598;28;20042;-93
2022/07/02 05:18:41;;;;;;;11.48;8.23;;;14.60;99.90;;;;;;5009504;28;20628;-93
2022/07/02 05:21:10;;;;;;;11.57;8.43;;;14.70;99.90;;;;;;5015608;28;20054;-93
2022/07/02 05:23:36;;;;;;;11.07;8.32;;;14.80;99.90;;;;;;5014584;28;20048;-94
2022/07/02 05:26:01;;;;;;;9.43;8.05;;;14.90;99.90;;;;;;4993078;28;20406;-95
2022/07/02 05:28:27;;;;;;;10.48;8.15;;;14.90;99.90;;;;;;4989007;28;20888;-94
2022/07/02 05:30:53;;;;;;;10.70;7.57;;;15.00;99.90;;;;;;5014747;28;20049;-93
2022/07/02 05:33:19;;;;;;;9.13;7.05;;;15.10;99.90;;;;;;4992167;28;20069;-96
2022/07/02 05:35:45;;;;;;;9.75;7.20;;;15.20;99.90;;;;;;4987247;28;20042;-95
2022/07/02 05:38:11;;;;;;;11.40;7.20;;;15.20;99.90;;;;;;5005401;28;20049;-94
2022/07/02 05:40:37;;;;;;;9.23;7.50;;;15.30;99.90;;;;;;5000959;28;20057;-92
2022/07/02 05:43:03;;;;;;;10.50;7.53;;;15.40;99.90;;;;;;4987925;28;20050;-94
2022/07/02 05:45:29;;;;;;;10.50;7.55;;;15.50;99.90;;;;;;5004268;28;20045;-93
2022/07/02 05:47:54;;;;;;;10.73;7.43;;;15.50;99.90;;;;;;5013925;28;20125;-93
2022/07/02 05:50:20;;;;;;;10.43;7.60;;;15.60;99.90;;;;;;5010267;28;20128;-94
2022/07/02 05:52:46;;;;;;;11.85;7.60;;;15.70;99.90;;;;;;4991159;28;20059;-93
2022/07/02 05:55:12;;;;;;;12.55;8.00;;;15.70;99.90;;;;;;4994564;28;20045;-93
2022/07/02 05:57:38;;;;;;;9.98;7.05;;;15.80;99.90;;;;;;4999596;28;20037;-94
2022/07/02 06:00:18;;;;;;;9.32;6.80;;;15.90;99.90;;;;;;5009747;28;20104;-93
2022/07/02 06:02:44;;;;;;;10.05;6.75;;;15.90;99.90;;;;;;5010255;28;20168;-92
2022/07/02 06:07:54;;;;;;;10.68;6.82;;;16.00;99.90;;;;;;5013610;28;20056;-95
2022/07/02 06:10:19;;;;;;;11.20;6.15;;;16.10;99.90;;;;;;5016883;28;20124;-94
2022/07/02 06:12:47;;;;;;;10.60;6.43;;;16.30;99.90;;;;;;5024586;28;20041;-93
2022/07/02 06:15:13;;;;;;;9.65;6.03;;;16.30;99.90;;;;;;5020354;28;20050;-94
2022/07/02 06:17:39;;;;;;;9.20;5.35;;;16.40;99.90;;;;;;5013694;28;20193;-95
2022/07/02 06:20:05;;;;;;;10.27;5.53;;;16.50;99.90;;;;;;5018507;28;20033;-94
2022/07/02 06:22:30;;;;;;;8.68;5.45;;;16.60;99.90;;;;;;5017487;28;20083;-94
2022/07/02 06:24:57;;;;;;;9.32;5.70;;;16.70;99.90;;;;;;5013131;28;20045;-94
2022/07/02 06:27:22;;;;;;;9.75;5.57;;;16.80;99.90;;;;;;5004184;28;20041;-94
2022/07/02 06:29:48;;;;;;;8.57;5.10;;;16.70;99.90;;;;;;4999197;28;20132;-96
2022/07/02 06:32:16;;;;;;;9.93;5.00;;;16.90;99.90;;;;;;5017744;28;20101;-94
2022/07/02 06:34:42;;;;;;;8.27;4.72;;;16.90;99.90;;;;;;5021572;28;20045;-95
2022/07/02 06:37:08;;;;;;;8.60;4.95;;;17.00;99.90;;;;;;4996746;28;20084;-92
2022/07/02 06:39:34;;;;;;;9.20;4.63;;;17.00;99.90;;;;;;5015071;28;20045;-93
2022/07/02 06:44:43;;;;;;;8.48;4.38;;;17.10;99.90;;;;;;5004338;28;20049;-91
2022/07/02 06:47:09;;;;;;;9.10;4.40;;;17.20;99.90;;;;;;5012454;28;20049;-91
2022/07/02 06:49:35;;;;;;;8.82;4.10;;;17.30;99.90;;;;;;5012791;28;20045;-94
2022/07/02 06:52:00;;;;;;;7.10;3.90;;;17.30;99.90;;;;;;5012561;28;20518;-93
2022/07/02 06:54:26;;;;;;;6.53;3.53;;;17.40;99.90;;;;;;5005767;28;20414;-92
2022/07/02 06:56:52;;;;;;;5.68;3.13;;;17.50;99.90;;;;;;5003860;28;20065;-93
2022/07/02 06:59:17;;;;;;;8.73;4.47;;;17.50;99.90;;;;;;5004894;28;20061;-91
2022/07/02 07:01:43;;;;;;;7.72;4.03;;;17.60;99.90;;;;;;5003085;28;20052;-93
2022/07/02 07:04:08;;;;;;;9.02;3.83;;;17.60;99.90;;;;;;5001936;28;20046;-92
2022/07/02 07:06:43;;;;;;;7.40;3.58;;;17.70;99.90;;;;;;5006432;28;20026;-89
2022/07/02 07:09:09;;;;;;;7.35;3.10;;;17.70;99.90;;;;;;5015789;28;20176;-94
2022/07/02 07:11:35;;;;;;;7.78;3.50;;;17.70;99.90;;;;;;5016487;28;20233;-92
2022/07/02 07:14:00;;;;;;;7.43;3.20;;;17.80;99.90;;;;;;5014742;28;20378;-91
2022/07/02 07:16:26;;;;;;;7.57;3.28;;;17.90;99.90;;;;;;5013656;28;20040;-93
2022/07/02 07:18:55;;;;;;;8.82;3.50;;;17.90;99.90;;;;;;5004663;28;20041;-93
2022/07/02 07:21:20;;;;;;;7.65;3.47;;;18.00;99.90;;;;;;5006870;28;20129;-91
2022/07/02 07:23:46;;;;;;;6.93;3.72;;;18.00;99.90;;;;;;4999819;28;20164;-92
2022/07/02 07:26:12;;;;;;;7.40;3.17;;;18.10;99.90;;;;;;5008501;28;20048;-93
2022/07/02 07:28:37;;;;;;;5.78;2.90;;;18.10;99.90;;;;;;5006385;28;20394;-94
2022/07/02 07:31:03;;;;;;;6.00;2.95;;;18.20;99.90;;;;;;4990079;28;20037;-94
2022/07/02 07:33:29;;;;;;;6.82;2.40;;;18.30;99.90;;;;;;4992460;28;20152;-92
2022/07/02 07:35:54;;;;;;;6.30;2.40;;;18.40;99.90;;;;;;5009188;28;20067;-91
2022/07/02 07:38:20;;;;;;;5.57;2.33;;;18.40;99.90;;;;;;5006394;28;20049;-91
2022/07/02 07:40:45;;;;;;;6.30;2.42;;;18.40;99.90;;;;;;5005121;28;20038;-89
2022/07/02 07:43:11;;;;;;;5.13;2.20;;;18.40;99.90;;;;;;5020522;28;20490;-90
2022/07/02 07:45:37;;;;;;;5.57;2.20;;;18.40;99.90;;;;;;5001723;28;20438;-90
2022/07/02 07:48:03;;;;;;;7.65;2.45;;;18.40;99.90;;;;;;5004810;28;20143;-88
2022/07/02 07:50:29;;;;;;;5.40;2.50;;;18.50;99.90;;;;;;4980013;28;20049;-91
2022/07/02 07:52:54;;;;;;;7.20;2.50;;;18.50;99.90;;;;;;5007103;28;20390;-94
2022/07/02 07:55:20;;;;;;;4.38;2.13;;;18.40;99.90;;;;;;5016817;28;20076;-89
2022/07/02 07:57:46;;;;;;;7.88;2.40;;;18.50;99.90;;;;;;5010650;28;20529;-92
2022/07/02 08:00:12;;;;;;;7.28;2.20;;;18.50;99.90;;;;;;5007287;28;20058;-89
2022/07/02 08:02:37;;;;;;;6.38;2.10;;;18.50;99.90;;;;;;4983417;28;20185;-90
2022/07/02 08:05:03;;;;;;;5.03;1.73;;;18.50;99.90;;;;;;5008297;28;20069;-90
2022/07/02 08:07:34;;;;;;;4.57;1.50;;;18.50;99.90;;;;;;5012214;28;20125;-91
2022/07/02 08:09:59;;;;;;;3.75;1.50;;;18.50;99.90;;;;;;5016395;28;20056;-90
2022/07/02 08:12:25;;;;;;;4.82;1.67;;;18.60;99.90;;;;;;5008816;28;20490;-87
2022/07/02 08:14:51;;;;;;;4.65;1.63;;;18.60;99.90;;;;;;5017580;28;20132;-89
2022/07/02 08:17:16;;;;;;;4.72;1.73;;;18.60;99.90;;;;;;5008505;28;20050;-92
2022/07/02 08:19:42;;;;;;;3.50;1.60;;;18.60;99.90;;;;;;5015779;28;20029;-90
2022/07/02 08:22:07;;;;;;;5.43;1.75;;;18.70;99.90;;;;;;4993105;28;20095;-87
2022/07/02 08:24:33;;;;;;;6.05;1.92;;;18.80;99.90;;;;;;5022843;28;20046;-89
2022/07/02 08:26:59;;;;;;;5.70;1.65;;;18.80;99.90;;;;;;5008333;28;20104;-89
2022/07/02 08:29:24;;;;;;;5.10;1.70;;;18.90;99.90;;;;;;5020412;28;20674;-89
2022/07/02 08:31:50;;;;;;;3.42;1.15;;;19.00;99.90;;;;;;5010067;28;20038;-87
2022/07/02 08:34:15;;;;;;;4.32;1.55;;;19.00;99.90;;;;;;5012778;28;20082;-89
2022/07/02 08:36:41;;;;;;;3.85;1.25;;;19.10;99.90;;;;;;5017962;28;20033;-89
2022/07/02 08:39:07;;;;;;;3.78;1.30;;;19.10;99.90;;;;;;5012038;28;20049;-88
2022/07/02 08:41:32;;;;;;;3.50;1.40;;;19.30;99.90;;;;;;4999393;28;20058;-89
2022/07/02 08:44:00;;;;;;;3.45;1.17;;;19.30;99.90;;;;;;5011449;28;20411;-91
2022/07/02 08:46:27;;;;;;;4.65;1.30;;;19.40;99.90;;;;;;4991384;28;20615;-91
2022/07/02 08:48:53;;;;;;;3.13;1.15;;;19.40;99.90;;;;;;4987319;28;20151;-89
2022/07/02 08:51:21;;;;;;;3.33;1.00;;;19.50;99.90;;;;;;5006145;28;20061;-89
2022/07/02 08:53:47;;;;;;;2.83;1.10;;;19.50;99.90;;;;;;5018883;28;20511;-90
2022/07/02 08:56:13;;;;;;;4.40;1.10;;;19.50;99.90;;;;;;5011443;28;20089;-89
2022/07/02 08:58:39;;;;;;;2.97;1.00;;;19.50;99.90;;;;;;5012314;28;20105;-89
2022/07/02 09:01:07;;;;;;;3.50;0.95;;;19.50;99.90;;;;;;5001465;28;20092;-88
2022/07/02 09:03:32;;;;;;;2.47;0.90;;;19.60;99.90;;;;;;5011945;28;20049;-89
2022/07/02 09:05:58;;;;;;;2.55;0.90;;;19.60;99.90;;;;;;4990086;28;20478;-87
2022/07/02 09:08:25;;;;;;;2.90;0.93;;;19.60;99.90;;;;;;5015970;28;20402;-89
2022/07/02 09:10:52;;;;;;;2.80;1.17;;;19.80;99.90;;;;;;5005554;28;20045;-89
2022/07/02 09:13:18;;;;;;;3.80;1.05;;;19.80;99.90;;;;;;5007865;28;20133;-89
2022/07/02 09:15:45;;;;;;;3.05;0.75;;;19.80;99.90;;;;;;4996961;28;20045;-89
2022/07/02 09:18:11;;;;;;;3.75;1.00;;;19.90;99.90;;;;;;5012103;28;20046;-90
2022/07/02 09:20:37;;;;;;;3.42;1.00;;;19.90;99.90;;;;;;5026946;28;20092;-87
2022/07/02 09:23:20;;;;;;;1.58;0.82;;;19.90;99.90;;;;;;5009153;28;20532;-88
2022/07/02 09:25:47;;;;;;;2.35;0.85;;;19.90;99.90;;;;;;4993471;28;20542;-89
2022/07/02 09:28:14;;;;;;;2.10;0.80;;;20.00;99.90;;;;;;5003369;28;20107;-89
2022/07/02 09:30:40;;;;;;;3.20;1.00;;;20.10;99.90;;;;;;4984363;28;20049;-92
2022/07/02 09:33:33;;;;;;;3.50;0.90;;;20.10;99.90;;;;;;5012557;28;20434;-90
2022/07/02 09:36:00;;;;;;;3.53;1.08;;;20.10;99.90;;;;;;5011402;28;20050;-89
2022/07/02 09:38:26;;;;;;;2.47;1.00;;;20.20;99.90;;;;;;5009794;28;20050;-91
2022/07/02 09:40:53;;;;;;;1.85;0.88;;;20.20;99.90;;;;;;5010083;28;20120;-92
2022/07/02 09:43:30;;;;;;;2.00;0.90;;;20.20;99.90;;;;;;5012864;28;20081;-91
2022/07/02 09:45:58;;;;;;;4.43;1.17;;;20.40;99.90;;;;;;5008767;28;20046;-88
2022/07/02 09:48:24;;;;;;;4.30;0.80;;;20.40;99.90;;;;;;5015535;28;20092;-91
2022/07/02 09:50:51;;;;;;;3.72;0.90;;;20.50;99.90;;;;;;5014986;28;20104;-89
2022/07/02 09:53:17;;;;;;;2.65;0.90;;;20.60;99.90;;;;;;5007907;28;20042;-91
2022/07/02 09:55:48;;;;;;;2.92;0.90;;;20.60;99.90;;;;;;5004001;28;20050;-89
2022/07/02 09:58:21;;;;;;;2.17;0.80;;;20.70;99.90;;;;;;5031035;28;20173;-87
2022/07/02 10:00:47;;;;;;;2.45;0.90;;;20.80;99.90;;;;;;5014829;28;20041;-92
2022/07/02 10:03:13;;;;;;;3.20;1.00;;;20.80;99.90;;;;;;5016320;28;20046;-91
2022/07/02 10:05:39;;;;;;;2.80;1.00;;;20.90;99.90;;;;;;5010289;28;20053;-90
2022/07/02 10:08:05;;;;;;;2.33;0.90;;;20.90;99.90;;;;;;5010112;28;20474;-91
2022/07/02 10:10:38;;;;;;;3.33;1.00;;;21.00;99.90;;;;;;5000509;28;20056;-90
2022/07/02 10:13:15;;;;;;;3.92;0.90;;;21.00;99.90;;;;;;4991538;28;20449;-90
2022/07/02 10:15:46;;;;;;;2.30;0.93;;;21.10;99.90;;;;;;4996615;28;20128;-90
2022/07/02 10:18:14;;;;;;;4.75;0.90;;;21.20;99.90;;;;;;5007825;28;20130;-89
2022/07/02 10:20:40;;;;;;;2.53;1.00;;;21.10;99.90;;;;;;5025456;28;20128;-91
2022/07/02 10:23:06;;;;;;;2.90;0.90;;;21.20;99.90;;;;;;5012307;28;20049;-92
2022/07/02 10:25:33;;;;;;;3.70;1.00;;;21.20;99.90;;;;;;5011659;28;20037;-92
2022/07/02 10:27:59;;;;;;;4.43;1.48;;;21.40;99.90;;;;;;5016085;28;20058;-90
2022/07/02 10:30:31;;;;;;;2.65;1.10;;;21.50;99.90;;;;;;5001680;28;20038;-89
2022/07/02 10:33:20;;;;;;;4.32;1.10;;;21.60;99.90;;;;;;5005088;28;20042;-92
2022/07/02 10:35:48;;;;;;;3.90;1.00;;;21.60;99.90;;;;;;5014124;28;20058;-90
2022/07/02 10:38:14;;;;;;;4.28;0.90;;;21.60;99.90;;;;;;5016002;28;20491;-90
2022/07/02 10:40:49;;;;;;;3.45;1.00;;;21.50;99.90;;;;;;5010619;28;20128;-91
2022/07/02 10:43:19;;;;;;;3.15;1.00;;;21.40;99.90;;;;;;5020440;28;20084;-86
2022/07/02 10:45:45;;;;;;;2.58;0.90;;;21.30;99.90;;;;;;5009700;28;20494;-90
2022/07/02 10:48:15;;;;;;;2.78;0.90;;;21.10;99.90;;;;;;5015057;28;20042;-90
2022/07/02 10:50:43;;;;;;;2.75;1.05;;;21.20;99.90;;;;;;5011102;28;20053;-89
2022/07/02 10:53:17;;;;;;;2.47;1.00;;;21.20;99.90;;;;;;5013937;28;20037;-91
2022/07/02 10:56:03;;;;;;;3.63;1.08;;;21.10;99.90;;;;;;5025008;28;20046;-90
2022/07/02 10:58:35;;;;;;;4.35;1.10;;;21.00;99.90;;;;;;5016411;28;20059;-92
2022/07/02 11:01:21;;;;;;;4.25;1.10;;;21.00;99.90;;;;;;5018743;28;20059;-91
2022/07/02 11:03:58;;;;;;;3.83;1.02;;;21.00;99.90;;;;;;4993703;28;20045;-89
2022/07/02 11:06:30;;;;;;;5.57;1.30;;;20.90;99.90;;;;;;5007551;28;20403;-90
2022/07/02 11:09:06;;;;;;;5.68;1.10;;;20.90;99.90;;;;;;5008273;28;20183;-89
2022/07/02 11:11:35;;;;;;;3.08;1.13;;;20.90;99.90;;;;;;5005993;28;20102;-90
2022/07/02 11:14:02;;;;;;;6.15;1.30;;;20.90;99.90;;;;;;5009609;28;20411;-89
2022/07/02 11:16:33;;;;;;;3.10;1.00;;;21.00;99.90;;;;;;5006575;28;20120;-90
2022/07/02 11:19:00;;;;;;;3.45;1.10;;;21.00;99.90;;;;;;5023715;28;20104;-88
2022/07/02 11:21:27;;;;;;;3.40;1.30;;;21.10;99.90;;;;;;5007219;28;20076;-88
2022/07/02 11:23:53;;;;;;;6.00;1.48;;;21.10;99.90;;;;;;5014596;28;20091;-88
2022/07/02 11:26:22;;;;;;;4.40;1.38;;;21.10;99.90;;;;;;5018229;28;20418;-90
2022/07/02 11:28:48;;;;;;;4.25;1.10;;;21.10;99.90;;;;;;5017123;28;20045;-89
2022/07/02 11:31:14;;;;;;;4.03;1.40;;;21.20;99.90;;;;;;5010548;28;20046;-90
2022/07/02 11:34:06;;;;;;;4.00;1.40;;;21.30;99.90;;;;;;5015010;28;20054;-90
2022/07/02 11:36:32;;;;;;;3.10;1.10;;;21.40;99.90;;;;;;5008147;28;20465;-89
2022/07/02 11:38:58;;;;;;;5.07;1.35;;;21.40;99.90;;;;;;5001191;28;20049;-90
2022/07/02 11:41:29;;;;;;;3.17;1.30;;;21.60;99.90;;;;;;5008203;28;20707;-90
2022/07/02 11:43:58;;;;;;;;;;;21.70;99.90;;;;;;5011181;28;20475;-90
2022/07/02 11:46:26;;;;;;;3.47;1.10;;;21.70;99.90;;;;;;5010751;28;19928;-88
2022/07/02 11:48:53;;;;;;;4.30;1.30;;;21.70;99.90;;;;;;5010916;28;20067;-96
2022/07/02 11:51:20;;;;;;;3.97;1.27;;;21.70;99.90;;;;;;5015460;28;20494;-95
2022/07/02 11:53:59;;;;;;;4.07;1.33;;;21.60;99.90;;;;;;4995624;28;20070;-96
2022/07/02 11:56:26;;;;;;;3.67;1.13;;;21.60;99.90;;;;;;5019474;28;20053;-96
2022/07/02 11:58:52;;;;;;;3.30;1.00;;;21.70;99.90;;;;;;5007164;28;20387;-96
2022/07/02 12:01:24;;;;;;;3.47;1.10;;;21.70;99.90;;;;;;5005208;28;20057;-96
2022/07/02 12:03:51;;;;;;;3.72;1.10;;;21.70;99.90;;;;;;5025006;28;20046;-96
2022/07/02 12:06:17;;;;;;;1.88;0.93;;;21.70;99.90;;;;;;5002211;28;20045;-96
2022/07/02 12:08:43;;;;;;;3.70;1.10;;;21.70;99.90;;;;;;5025467;28;20101;-96
2022/07/02 12:11:17;;;;;;;4.75;1.33;;;21.70;99.90;;;;;;5007167;28;20124;-96
2022/07/02 12:13:44;;;;;;;4.68;1.00;;;21.90;99.90;;;;;;5020656;28;20042;-96
2022/07/02 12:16:19;;;;;;;4.38;1.20;;;21.90;99.90;;;;;;5007094;28;20464;-95
2022/07/02 12:18:58;;;;;;;5.85;1.17;;;22.00;99.90;;;;;;4999798;28;20045;-96
2022/07/02 12:21:32;;;;;;;3.50;1.10;;;22.20;99.90;;;;;;5019641;28;20065;-95
2022/07/02 12:23:58;;;;;;;3.22;0.95;;;22.30;99.90;;;;;;5020463;28;20486;-94
2022/07/02 12:26:26;;;;;;;3.92;1.00;;;22.30;99.90;;;;;;5017193;28;20490;-96
2022/07/02 12:31:44;;;;;;;4.03;1.00;;;22.40;99.90;;;;;;5015729;28;20052;-94
2022/07/02 12:34:10;;;;;;;2.78;1.02;;;22.30;99.90;;;;;;5012037;28;20089;-93
2022/07/02 12:36:54;;;;;;;2.05;0.90;;;22.20;99.90;;;;;;5001360;28;20062;-95
2022/07/02 12:39:38;;;;;;;1.65;0.90;;;22.20;99.90;;;;;;5023955;28;20080;-96
2022/07/02 12:42:19;;;;;;;7.22;1.42;;;22.20;99.90;;;;;;5017891;28;20041;-96
2022/07/02 12:44:56;;;;;;;4.03;1.15;;;22.20;99.90;;;;;;5018750;28;20045;-93
2022/07/02 12:47:23;;;;;;;7.72;1.20;;;22.20;99.90;;;;;;4989642;28;20049;-94
2022/07/02 12:50:04;;;;;;;2.95;0.90;;;22.40;99.90;;;;;;5028220;28;20048;-94
2022/07/02 12:52:42;;;;;;;3.33;1.20;;;22.40;99.90;;;;;;5010057;28;20033;-95
2022/07/02 12:55:18;;;;;;;3.97;1.10;;;22.40;99.90;;;;;;4999282;28;20050;-96